Time;durP1;ratioP1;P1;durP2;ratioP2;P2;SDS_P1;SDS_P2;PMS_P1;PMS_P2;Temp;Humidity;BMP_temperature;BMP_pressure;BME280_temperature;BME280_humidity;BME280_pressure;Samples;Min_cycle;Max_cycle;Signal;HPM_P1;HPM_P2
2021/09/11 00:05:53;;;;;;;29.85;21.42;;;17.90;99.90;;;;;;12511278;28;20059;-37
2021/09/11 00:11:55;;;;;;;34.70;22.77;;;17.90;99.90;;;;;;12508175;28;20053;-37
2021/09/11 00:18:02;;;;;;;31.73;22.40;;;17.80;99.90;;;;;;12510475;28;20148;-37
2021/09/11 00:24:05;;;;;;;32.42;23.08;;;17.80;99.90;;;;;;12507727;28;20084;-37
2021/09/11 00:30:08;;;;;;;32.70;22.00;;;17.70;99.90;;;;;;12507705;28;20100;-39
2021/09/11 00:36:10;;;;;;;34.88;23.52;;;17.70;99.90;;;;;;12509401;28;20101;-37
2021/09/11 00:42:12;;;;;;;38.42;24.58;;;17.50;99.90;;;;;;12507874;28;20443;-37
2021/09/11 00:48:14;;;;;;;36.40;26.00;;;17.50;99.90;;;;;;12512032;28;20130;-38
2021/09/11 00:54:16;;;;;;;40.53;28.15;;;17.40;99.90;;;;;;12507179;28;20147;-37
2021/09/11 01:00:18;;;;;;;44.17;28.65;;;17.40;99.90;;;;;;12512888;28;20627;-37
2021/09/11 01:06:24;;;;;;;52.60;32.40;;;17.50;99.90;;;;;;12506843;28;20056;-38
2021/09/11 01:12:27;;;;;;;56.80;34.17;;;17.40;99.90;;;;;;12513253;28;20074;-37
2021/09/11 01:18:29;;;;;;;55.70;32.70;;;17.40;99.90;;;;;;12508994;28;20053;-38
2021/09/11 01:24:31;;;;;;;52.00;32.35;;;17.40;99.90;;;;;;12492010;28;20045;-37
2021/09/11 01:30:33;;;;;;;47.00;30.23;;;17.40;99.90;;;;;;12508519;28;20056;-37
2021/09/11 01:36:36;;;;;;;41.95;27.85;;;17.40;99.90;;;;;;12505136;28;20136;-38
2021/09/11 01:42:38;;;;;;;40.13;26.50;;;17.40;99.90;;;;;;12504516;28;20788;-40
2021/09/11 01:48:40;;;;;;;35.42;23.23;;;17.40;99.90;;;;;;12512119;28;20080;-37
2021/09/11 01:54:42;;;;;;;35.13;24.05;;;17.40;99.90;;;;;;12506461;28;20092;-37
2021/09/11 02:00:47;;;;;;;35.95;23.63;;;17.50;99.90;;;;;;12506606;28;20049;-38
2021/09/11 02:06:50;;;;;;;28.15;21.63;;;17.50;99.90;;;;;;12506795;28;20512;-37
2021/09/11 02:12:52;;;;;;;28.10;21.73;;;17.40;99.90;;;;;;12487369;28;20049;-36
2021/09/11 02:18:54;;;;;;;25.45;19.52;;;17.40;99.90;;;;;;12503641;28;20079;-38
2021/09/11 02:24:58;;;;;;;31.20;18.90;;;17.40;99.90;;;;;;12499039;28;20463;-37
2021/09/11 02:31:00;;;;;;;26.52;18.63;;;17.40;99.90;;;;;;12501426;28;20102;-37
2021/09/11 02:37:02;;;;;;;23.20;17.80;;;17.30;99.90;;;;;;12504806;28;20136;-40
2021/09/11 02:43:03;;;;;;;24.92;18.00;;;17.30;99.90;;;;;;12507907;28;20041;-37
2021/09/11 02:49:05;;;;;;;22.23;17.67;;;17.30;99.90;;;;;;12504162;28;20064;-37
2021/09/11 02:55:08;;;;;;;21.20;16.27;;;17.30;99.90;;;;;;12507710;28;20071;-37
2021/09/11 03:01:10;;;;;;;22.98;16.38;;;17.30;99.90;;;;;;12501247;28;20052;-36
2021/09/11 03:07:12;;;;;;;21.23;15.13;;;17.30;99.90;;;;;;12503640;28;20075;-37
2021/09/11 03:13:14;;;;;;;18.10;13.80;;;17.30;99.90;;;;;;12503967;28;20044;-38
2021/09/11 03:19:16;;;;;;;22.77;13.65;;;17.20;99.90;;;;;;12501558;28;20152;-37
2021/09/11 03:25:18;;;;;;;15.60;12.40;;;17.30;99.90;;;;;;12482443;28;20084;-37
2021/09/11 03:31:20;;;;;;;17.70;11.45;;;17.30;99.90;;;;;;12499862;28;20084;-37
2021/09/11 03:37:22;;;;;;;16.80;10.82;;;17.20;99.90;;;;;;12501735;28;20053;-37
2021/09/11 03:43:25;;;;;;;15.90;10.40;;;17.20;99.90;;;;;;12511190;28;20045;-37
2021/09/11 03:49:27;;;;;;;12.98;9.82;;;17.20;99.90;;;;;;12513585;28;20080;-38
2021/09/11 03:55:29;;;;;;;13.13;10.15;;;17.20;99.90;;;;;;12508582;28;20159;-36
2021/09/11 04:01:31;;;;;;;12.90;9.55;;;17.20;99.90;;;;;;12510986;28;20114;-37
2021/09/11 04:07:33;;;;;;;12.40;9.40;;;17.30;99.90;;;;;;12511513;28;20393;-39
2021/09/11 04:13:36;;;;;;;13.93;9.05;;;17.20;99.90;;;;;;12486503;28;20421;-37
2021/09/11 04:19:37;;;;;;;12.90;9.45;;;17.20;99.90;;;;;;12509780;28;20056;-37
2021/09/11 04:25:39;;;;;;;13.15;10.00;;;17.30;99.90;;;;;;12510330;28;20938;-37
2021/09/11 04:31:42;;;;;;;15.15;10.07;;;17.30;99.90;;;;;;12505099;28;20058;-38
2021/09/11 04:37:44;;;;;;;14.10;10.32;;;17.30;99.90;;;;;;12510456;28;20135;-36
2021/09/11 04:43:46;;;;;;;17.90;12.82;;;17.40;99.90;;;;;;12508785;28;20215;-37
2021/09/11 04:49:48;;;;;;;17.23;13.68;;;17.40;99.90;;;;;;12512471;28;20156;-37
2021/09/11 04:55:49;;;;;;;20.25;15.63;;;17.40;99.90;;;;;;12507009;28;20045;-37
2021/09/11 05:01:52;;;;;;;24.55;17.83;;;17.50;99.90;;;;;;12509486;28;20455;-37
2021/09/11 05:07:55;;;;;;;28.00;18.97;;;17.50;99.90;;;;;;12513523;28;20144;-37
2021/09/11 05:13:57;;;;;;;31.10;22.05;;;17.60;99.90;;;;;;12484825;28;20053;-37
2021/09/11 05:19:59;;;;;;;30.63;22.73;;;17.60;99.90;;;;;;12509973;28;20077;-37
2021/09/11 05:26:04;;;;;;;33.97;23.38;;;17.60;99.90;;;;;;12512299;28;20076;-37
2021/09/11 05:32:06;;;;;;;33.05;25.08;;;17.60;99.90;;;;;;12510224;28;20816;-37
2021/09/11 05:38:08;;;;;;;36.28;24.48;;;17.60;99.90;;;;;;12508688;28;20128;-39
2021/09/11 05:44:11;;;;;;;33.20;23.83;;;17.60;99.90;;;;;;12511161;28;20148;-37
2021/09/11 05:50:13;;;;;;;35.00;24.85;;;17.60;99.90;;;;;;12503645;28;20364;-38
2021/09/11 05:56:15;;;;;;;33.13;24.55;;;17.60;99.90;;;;;;12508795;28;20155;-38
2021/09/11 06:02:17;;;;;;;32.15;23.80;;;17.60;99.90;;;;;;12507997;28;20049;-37
2021/09/11 06:08:19;;;;;;;29.80;23.23;;;17.60;99.90;;;;;;12505937;28;20052;-37
2021/09/11 06:14:21;;;;;;;32.67;24.30;;;17.70;99.90;;;;;;12506146;28;20141;-38
2021/09/11 06:20:24;;;;;;;28.92;20.92;;;17.70;99.90;;;;;;12510689;28;20056;-37
2021/09/11 06:26:26;;;;;;;30.42;21.80;;;17.70;99.90;;;;;;12506946;28;20064;-39
2021/09/11 06:32:31;;;;;;;30.58;21.55;;;17.70;99.90;;;;;;12509109;28;20049;-38
2021/09/11 06:38:37;;;;;;;29.77;21.98;;;17.60;99.90;;;;;;12512413;28;20049;-38
2021/09/11 06:44:41;;;;;;;29.52;21.55;;;17.70;99.90;;;;;;12513002;28;20481;-38
2021/09/11 06:50:46;;;;;;;31.42;21.45;;;17.70;99.90;;;;;;12508063;28;20136;-37
2021/09/11 06:56:49;;;;;;;30.20;21.88;;;17.80;99.90;;;;;;12513625;28;20178;-38
2021/09/11 07:02:51;;;;;;;31.23;21.42;;;17.80;99.90;;;;;;12509989;28;20497;-37
2021/09/11 07:08:54;;;;;;;29.38;19.58;;;18.00;99.90;;;;;;12513040;28;20484;-37
2021/09/11 07:14:56;;;;;;;29.95;20.02;;;18.00;99.90;;;;;;12511818;28;20048;-37
2021/09/11 07:20:59;;;;;;;28.65;18.52;;;18.10;99.90;;;;;;12521180;28;20049;-37
2021/09/11 07:27:02;;;;;;;26.23;18.30;;;18.20;99.90;;;;;;12521236;28;20761;-37
2021/09/11 07:33:04;;;;;;;23.65;17.25;;;18.20;99.90;;;;;;12503111;28;20099;-37
2021/09/11 07:39:07;;;;;;;22.75;16.55;;;18.30;99.90;;;;;;12521102;28;20705;-38
2021/09/11 07:45:13;;;;;;;20.00;14.95;;;18.50;99.90;;;;;;12521381;28;20139;-37
2021/09/11 07:51:15;;;;;;;17.85;13.95;;;18.60;99.90;;;;;;12519325;28;20102;-38
2021/09/11 07:57:17;;;;;;;29.88;12.35;;;18.60;99.90;;;;;;12518858;28;20053;-38
2021/09/11 08:03:19;;;;;;;19.75;12.13;;;18.70;99.90;;;;;;12519509;28;20374;-37
2021/09/11 08:09:22;;;;;;;17.70;12.43;;;18.50;99.90;;;;;;12519262;28;20053;-37
2021/09/11 08:15:26;;;;;;;16.60;13.02;;;18.30;99.90;;;;;;12495711;28;20861;-38
2021/09/11 08:21:28;;;;;;;19.25;13.40;;;18.40;99.90;;;;;;12516745;28;20037;-37
2021/09/11 08:27:31;;;;;;;20.13;13.77;;;18.40;99.90;;;;;;12513365;28;20097;-37
2021/09/11 08:33:34;;;;;;;20.40;14.00;;;18.40;99.90;;;;;;12510259;28;20054;-37
2021/09/11 08:39:38;;;;;;;22.15;14.60;;;18.50;99.90;;;;;;12513534;28;20102;-37
2021/09/11 08:45:40;;;;;;;22.77;15.93;;;18.70;99.90;;;;;;12515189;28;20638;-38
2021/09/11 08:51:42;;;;;;;20.95;15.05;;;18.80;99.90;;;;;;12514987;28;20057;-37
2021/09/11 08:58:10;;;;;;;17.10;13.55;;;19.10;99.90;;;;;;12500282;28;20459;-37
2021/09/11 09:04:12;;;;;;;18.45;13.50;;;19.10;99.90;;;;;;12514056;28;20041;-37
2021/09/11 09:10:18;;;;;;;17.48;13.77;;;19.00;99.90;;;;;;12520230;28;20485;-38
2021/09/11 09:16:22;;;;;;;19.98;13.90;;;19.00;99.90;;;;;;12517704;28;20473;-37
2021/09/11 09:22:25;;;;;;;18.27;14.60;;;19.30;99.90;;;;;;12519438;28;20405;-37
2021/09/11 09:28:29;;;;;;;18.33;14.57;;;19.50;99.90;;;;;;12512296;28;20057;-38
2021/09/11 09:34:44;;;;;;;18.63;13.70;;;19.40;99.90;;;;;;12516521;28;20773;-38
2021/09/11 09:40:49;;;;;;;17.63;13.63;;;19.40;99.90;;;;;;12512677;28;20156;-38
2021/09/11 09:46:52;;;;;;;16.98;14.15;;;19.20;99.90;;;;;;12517553;28;20083;-37
2021/09/11 09:52:55;;;;;;;19.38;14.52;;;19.10;99.90;;;;;;12511550;28;20070;-37
2021/09/11 09:58:57;;;;;;;17.80;15.33;;;19.20;99.90;;;;;;12516945;28;20137;-37
2021/09/11 10:05:00;;;;;;;18.00;14.47;;;19.30;99.90;;;;;;12511954;28;20403;-37
2021/09/11 10:11:10;;;;;;;15.10;13.50;;;19.80;99.90;;;;;;12512213;28;20057;-38
2021/09/11 10:17:12;;;;;;;13.85;12.35;;;19.40;99.90;;;;;;12510317;28;20053;-37
2021/09/11 10:23:15;;;;;;;11.38;10.18;;;19.40;99.90;;;;;;12512429;28;20045;-37
2021/09/11 10:29:40;;;;;;;9.45;8.45;;;19.60;99.90;;;;;;12515904;28;20053;-38
2021/09/11 10:35:43;;;;;;;11.25;7.18;;;19.30;99.90;;;;;;12498721;28;20049;-38
2021/09/11 10:42:06;;;;;;;7.55;4.72;;;19.50;99.90;;;;;;12513304;28;20045;-40
2021/09/11 10:48:37;;;;;;;8.63;4.57;;;19.30;99.90;;;;;;12513742;28;20049;-40
2021/09/11 10:54:43;;;;;;;7.90;5.43;;;19.40;99.90;;;;;;12509499;28;20053;-37
2021/09/11 11:00:58;;;;;;;8.73;5.00;;;19.50;99.90;;;;;;12511100;28;20102;-37
2021/09/11 11:07:04;;;;;;;7.50;5.60;;;19.30;99.90;;;;;;12512849;28;20072;-37
2021/09/11 11:13:06;;;;;;;12.73;5.90;;;19.30;99.90;;;;;;12510648;28;20141;-37
2021/09/11 11:19:08;;;;;;;6.93;4.90;;;19.50;99.90;;;;;;12509415;28;20147;-37
2021/09/11 11:25:14;;;;;;;8.07;5.57;;;19.40;99.90;;;;;;12510691;28;20037;-37
2021/09/11 11:31:16;;;;;;;7.72;6.15;;;19.50;99.90;;;;;;12512621;28;20145;-37
2021/09/11 11:37:19;;;;;;;8.80;6.75;;;19.50;99.90;;;;;;12513413;28;20052;-37
2021/09/11 11:43:21;;;;;;;9.40;7.00;;;19.30;99.90;;;;;;12504580;28;20053;-37
2021/09/11 11:49:33;;;;;;;8.10;7.30;;;20.20;99.90;;;;;;12511390;28;20215;-37
2021/09/11 11:55:43;;;;;;;9.07;6.82;;;21.00;99.90;;;;;;12511769;28;20350;-37
2021/09/11 12:01:46;;;;;;;10.77;7.38;;;21.20;99.90;;;;;;12515028;28;20065;-38
2021/09/11 12:08:02;;;;;;;9.65;7.97;;;20.70;99.90;;;;;;12514289;28;20099;-37
2021/09/11 12:14:05;;;;;;;8.30;7.40;;;20.80;99.90;;;;;;12514505;28;20505;-38
2021/09/11 12:20:15;;;;;;;8.00;7.20;;;21.30;99.90;;;;;;12512983;28;20053;-38
2021/09/11 12:26:36;;;;;;;9.60;7.38;;;21.00;99.90;;;;;;12516719;28;20049;-38
2021/09/11 12:32:49;;;;;;;9.25;7.53;;;20.10;99.90;;;;;;12519526;28;20037;-37
2021/09/11 12:38:52;;;;;;;;;;;19.80;99.90;;;;;;12515673;28;20048;-37
2021/09/11 12:44:54;;;;;;;11.50;9.07;;;19.70;99.90;;;;;;12501503;28;20577;-39
2021/09/11 12:50:56;;;;;;;10.07;8.38;;;19.70;99.90;;;;;;12514407;28;20435;-38
2021/09/11 12:56:58;;;;;;;10.43;8.73;;;19.60;99.90;;;;;;12517125;28;20478;-38
2021/09/11 13:03:00;;;;;;;12.85;8.80;;;19.50;99.90;;;;;;12519230;28;20045;-40
2021/09/11 13:09:10;;;;;;;8.93;7.90;;;19.60;99.90;;;;;;12516262;28;20513;-37
2021/09/11 13:15:13;;;;;;;10.43;7.65;;;19.70;99.90;;;;;;12501973;28;20088;-37
2021/09/11 13:21:16;;;;;;;10.83;7.33;;;19.70;99.90;;;;;;12517022;28;20053;-39
2021/09/11 13:27:19;;;;;;;9.43;7.03;;;19.90;99.90;;;;;;12518097;28;20049;-37
2021/09/11 13:33:21;;;;;;;8.13;7.30;;;19.90;99.90;;;;;;12516944;28;20114;-37
2021/09/11 13:39:24;;;;;;;9.05;7.75;;;19.90;99.90;;;;;;12516088;28;20076;-40
2021/09/11 13:45:27;;;;;;;9.27;7.68;;;19.80;99.90;;;;;;12511682;28;20478;-39
2021/09/11 13:51:32;;;;;;;8.65;7.82;;;19.80;99.90;;;;;;12513013;28;20115;-37
2021/09/11 13:57:40;;;;;;;8.40;7.47;;;20.00;99.90;;;;;;12512877;28;20060;-39
2021/09/11 14:03:42;;;;;;;10.70;7.22;;;20.40;99.90;;;;;;12512497;28;20037;-37
2021/09/11 14:09:44;;;;;;;10.23;7.40;;;20.80;99.90;;;;;;12519679;28;20049;-37
2021/09/11 14:15:47;;;;;;;9.23;7.60;;;20.90;99.90;;;;;;12509416;28;20106;-38
2021/09/11 14:21:51;;;;;;;11.50;8.77;;;20.80;99.90;;;;;;12516769;28;20060;-37
2021/09/11 14:27:54;;;;;;;10.52;8.20;;;20.40;99.90;;;;;;12496693;28;20044;-38
2021/09/11 14:34:01;;;;;;;10.38;8.93;;;20.40;99.90;;;;;;12513841;28;20049;-38
2021/09/11 14:40:05;;;;;;;9.20;8.20;;;20.30;99.90;;;;;;12509983;28;20410;-37
2021/09/11 14:46:09;;;;;;;10.00;8.82;;;20.50;99.90;;;;;;12506550;28;20044;-37
2021/09/11 14:52:14;;;;;;;10.30;7.85;;;20.60;99.90;;;;;;12508345;28;20051;-38
2021/09/11 14:58:16;;;;;;;9.15;8.18;;;20.70;99.90;;;;;;12509671;28;20045;-37
2021/09/11 15:04:28;;;;;;;6.85;5.82;;;20.70;99.90;;;;;;12511171;28;20079;-38
2021/09/11 15:10:31;;;;;;;7.97;6.20;;;20.50;99.90;;;;;;12512556;28;20041;-39
2021/09/11 15:16:35;;;;;;;8.05;5.95;;;20.60;99.90;;;;;;12506068;28;20335;-37
2021/09/11 15:22:44;;;;;;;8.05;5.70;;;20.60;99.90;;;;;;12493213;28;20045;-40
2021/09/11 15:28:47;;;;;;;7.10;5.90;;;20.60;99.90;;;;;;12503058;28;20397;-37
2021/09/11 15:34:51;;;;;;;9.25;5.70;;;20.50;99.90;;;;;;12507122;28;20160;-38
2021/09/11 15:40:53;;;;;;;6.88;5.82;;;20.50;99.90;;;;;;12523498;28;20082;-38
2021/09/11 15:46:55;;;;;;;7.80;6.28;;;20.20;99.90;;;;;;12515682;28;20060;-37
2021/09/11 15:52:57;;;;;;;7.57;6.15;;;20.00;99.90;;;;;;12514601;28;20053;-37
2021/09/11 15:58:59;;;;;;;7.72;6.05;;;19.90;99.90;;;;;;12502472;28;20053;-37
2021/09/11 16:05:02;;;;;;;7.40;5.88;;;19.90;99.90;;;;;;12489857;28;20050;-37
2021/09/11 16:11:04;;;;;;;8.23;5.72;;;19.80;99.90;;;;;;12512110;28;20060;-39
2021/09/11 16:17:09;;;;;;;8.27;5.32;;;19.70;99.90;;;;;;12498204;28;20057;-37
2021/09/11 16:23:13;;;;;;;6.63;5.28;;;19.70;99.90;;;;;;12441004;28;20046;-37
2021/09/11 16:29:15;;;;;;;8.13;5.32;;;19.70;99.90;;;;;;12470799;28;20106;-36
2021/09/11 16:35:17;;;;;;;9.43;5.95;;;19.70;99.90;;;;;;12468518;28;20163;-38
2021/09/11 16:41:21;;;;;;;7.28;5.18;;;19.60;99.90;;;;;;12469444;28;20057;-37
2021/09/11 16:47:23;;;;;;;6.00;4.90;;;19.60;99.90;;;;;;12473528;28;20046;-37
2021/09/11 16:53:25;;;;;;;6.40;5.10;;;19.60;99.90;;;;;;12467227;28;20062;-38
2021/09/11 16:59:27;;;;;;;6.05;4.93;;;19.60;99.90;;;;;;12469313;28;20088;-37
2021/09/11 17:05:32;;;;;;;6.72;4.60;;;19.50;99.90;;;;;;12466592;28;20494;-37
2021/09/11 17:11:36;;;;;;;5.47;4.53;;;19.60;99.90;;;;;;12470026;28;20546;-38
2021/09/11 17:17:40;;;;;;;6.15;4.90;;;19.80;99.90;;;;;;12440854;28;20145;-37
2021/09/11 17:23:43;;;;;;;8.83;5.40;;;19.90;99.90;;;;;;12515794;28;20045;-37
2021/09/11 17:29:46;;;;;;;9.85;5.35;;;19.80;99.90;;;;;;12514429;28;20124;-38
2021/09/11 17:35:50;;;;;;;11.05;4.90;;;19.40;99.90;;;;;;12509730;28;20045;-36
2021/09/11 17:41:52;;;;;;;6.57;4.60;;;19.20;99.90;;;;;;12511527;28;20080;-37
2021/09/11 17:47:55;;;;;;;7.70;4.45;;;19.10;99.90;;;;;;12520874;28;20075;-38
2021/09/11 17:53:58;;;;;;;6.88;5.13;;;19.00;99.90;;;;;;12512016;28;20165;-37
2021/09/11 18:00:00;;;;;;;9.27;5.28;;;18.90;99.90;;;;;;12518826;28;20044;-38
2021/09/11 18:06:02;;;;;;;6.93;5.05;;;18.90;99.90;;;;;;12514635;28;20068;-39
2021/09/11 18:12:05;;;;;;;10.95;5.30;;;18.70;99.90;;;;;;12514142;28;20074;-37
2021/09/11 18:18:10;;;;;;;9.60;5.40;;;18.70;99.90;;;;;;12512721;28;20052;-37
2021/09/11 18:24:12;;;;;;;8.43;5.38;;;18.60;99.90;;;;;;12512703;28;20160;-38
2021/09/11 18:30:14;;;;;;;9.18;6.35;;;18.50;99.90;;;;;;12512089;28;20544;-37
2021/09/11 18:36:16;;;;;;;8.18;5.72;;;18.50;99.90;;;;;;12512302;28;20090;-37
2021/09/11 18:42:18;;;;;;;8.50;6.30;;;18.50;99.90;;;;;;12512422;28;20052;-37
2021/09/11 18:48:20;;;;;;;7.45;6.32;;;18.30;99.90;;;;;;12511729;28;20081;-37
2021/09/11 18:54:22;;;;;;;10.98;7.07;;;18.40;99.90;;;;;;12514866;28;20049;-37
2021/09/11 19:00:24;;;;;;;9.00;6.90;;;18.50;99.90;;;;;;12511401;28;20549;-38
2021/09/11 19:06:26;;;;;;;10.50;6.95;;;18.40;99.90;;;;;;12508416;28;20049;-37
2021/09/11 19:12:28;;;;;;;7.25;6.40;;;18.40;99.90;;;;;;12515249;28;20783;-37
2021/09/11 19:18:34;;;;;;;7.55;6.75;;;18.40;99.90;;;;;;12518256;28;20049;-37
2021/09/11 19:24:36;;;;;;;10.65;7.15;;;18.40;99.90;;;;;;12514350;28;20053;-37
2021/09/11 19:30:38;;;;;;;8.57;7.22;;;18.30;99.90;;;;;;12520228;28;20045;-37
2021/09/11 19:36:43;;;;;;;11.13;7.10;;;18.30;99.90;;;;;;12516126;28;20091;-37
2021/09/11 19:42:47;;;;;;;7.72;6.93;;;18.30;99.90;;;;;;12515340;28;20076;-37
2021/09/11 19:48:50;;;;;;;9.70;6.78;;;18.20;99.90;;;;;;12518153;28;20061;-39
2021/09/11 19:54:55;;;;;;;9.30;6.85;;;18.20;99.90;;;;;;12515131;28;20094;-37
2021/09/11 20:00:58;;;;;;;9.18;7.47;;;18.20;99.90;;;;;;12518236;28;20067;-37
2021/09/11 20:07:01;;;;;;;10.20;7.47;;;18.10;99.90;;;;;;12518712;28;20144;-37
2021/09/11 20:13:03;;;;;;;10.88;6.90;;;18.10;99.90;;;;;;12513285;28;20088;-37
2021/09/11 20:19:08;;;;;;;10.13;7.38;;;18.30;99.90;;;;;;12512860;28;20093;-37
2021/09/11 20:25:10;;;;;;;8.10;6.35;;;18.20;99.90;;;;;;12517662;28;20045;-37
2021/09/11 20:31:12;;;;;;;9.13;6.90;;;18.10;99.90;;;;;;12496755;28;20045;-37
2021/09/11 20:37:14;;;;;;;8.18;6.50;;;18.00;99.90;;;;;;12518594;28;20050;-38
2021/09/11 20:43:16;;;;;;;7.28;5.95;;;18.00;99.90;;;;;;12514879;28;20406;-37
2021/09/11 20:49:20;;;;;;;9.20;6.95;;;18.00;99.90;;;;;;12519148;28;20088;-37
2021/09/11 20:55:22;;;;;;;8.27;6.25;;;18.00;99.90;;;;;;12514932;28;20678;-37
2021/09/11 21:01:26;;;;;;;9.45;6.80;;;18.00;99.90;;;;;;12513528;28;20132;-40
2021/09/11 21:07:31;;;;;;;9.27;5.97;;;17.90;99.90;;;;;;12514088;28;20099;-37
2021/09/11 21:13:33;;;;;;;8.75;6.35;;;18.00;99.90;;;;;;12512367;28;20147;-37
2021/09/11 21:19:35;;;;;;;8.00;7.03;;;17.90;99.90;;;;;;12517330;28;20902;-38
2021/09/11 21:25:38;;;;;;;9.77;7.18;;;17.90;99.90;;;;;;12519309;28;20049;-37
2021/09/11 21:31:40;;;;;;;11.02;7.47;;;17.80;99.90;;;;;;12513498;28;20132;-37
2021/09/11 21:37:42;;;;;;;10.90;7.00;;;17.90;99.90;;;;;;12513395;28;20060;-37
2021/09/11 21:43:44;;;;;;;11.73;7.57;;;17.90;99.90;;;;;;12512140;28;20056;-37
2021/09/11 21:49:46;;;;;;;9.65;6.80;;;17.80;99.90;;;;;;12513300;28;20147;-37
2021/09/11 21:55:49;;;;;;;9.63;6.85;;;17.90;99.90;;;;;;12512759;28;20095;-37
2021/09/11 22:01:53;;;;;;;7.90;6.03;;;18.00;99.90;;;;;;12511096;28;20511;-38
2021/09/11 22:07:56;;;;;;;7.55;6.25;;;18.10;99.90;;;;;;12512894;28;20067;-36
2021/09/11 22:13:58;;;;;;;10.38;6.32;;;18.20;99.90;;;;;;12511077;28;20048;-37
2021/09/11 22:20:02;;;;;;;;;;;18.30;99.90;;;;;;12510997;28;20058;-37
2021/09/11 22:26:13;;;;;;;7.70;6.55;;;18.30;99.90;;;;;;12514748;28;19925;-37
2021/09/11 22:32:14;;;;;;;8.68;6.85;;;18.30;99.90;;;;;;12513047;28;20905;-38
2021/09/11 22:38:16;;;;;;;13.75;7.60;;;18.20;99.90;;;;;;12513853;28;20057;-37
2021/09/11 22:44:18;;;;;;;12.15;8.82;;;18.00;99.90;;;;;;12507577;28;20591;-37
2021/09/11 22:50:20;;;;;;;11.02;8.60;;;17.90;99.90;;;;;;12506383;28;20050;-37
2021/09/11 22:56:22;;;;;;;11.30;7.93;;;17.90;99.90;;;;;;12512855;28;20064;-37
2021/09/11 23:02:24;;;;;;;13.02;8.85;;;17.80;99.90;;;;;;12513695;28;20053;-37
2021/09/11 23:08:26;;;;;;;10.80;8.80;;;17.80;99.90;;;;;;12510542;28;20616;-37
2021/09/11 23:14:28;;;;;;;13.25;9.13;;;17.80;99.90;;;;;;12507243;28;20056;-37
2021/09/11 23:20:30;;;;;;;12.25;9.02;;;17.60;99.90;;;;;;12510192;28;20045;-37
2021/09/11 23:26:32;;;;;;;13.32;10.20;;;17.60;99.90;;;;;;12514728;28;20052;-39
2021/09/11 23:32:34;;;;;;;15.73;11.32;;;17.50;99.90;;;;;;12507025;28;20044;-37
2021/09/11 23:38:37;;;;;;;12.63;9.77;;;17.40;99.90;;;;;;12512169;28;21054;-37
2021/09/11 23:44:39;;;;;;;13.52;10.35;;;17.30;99.90;;;;;;12512260;28;20412;-37
2021/09/11 23:50:41;;;;;;;13.95;10.38;;;17.30;99.90;;;;;;12508393;28;20041;-37
2021/09/11 23:56:43;;;;;;;16.80;10.68;;;17.30;99.90;;;;;;12511773;28;20141;-37
